sensor_id;sensor_type;location;lat;lon;timestamp;P1;durP1;ratioP1;P2;durP2;ratioP2
1428;SDS011;708;51.442;7.016;2024-03-02T00:04:57;7.65;;;7.35;;
1428;SDS011;708;51.442;7.016;2024-03-02T00:07:38;8.10;;;7.80;;
1428;SDS011;708;51.442;7.016;2024-03-02T00:10:35;7.72;;;7.43;;
1428;SDS011;708;51.442;7.016;2024-03-02T00:13:18;7.70;;;7.40;;
1428;SDS011;708;51.442;7.016;2024-03-02T00:16:34;8.13;;;7.82;;
1428;SDS011;708;51.442;7.016;2024-03-02T00:19:30;8.40;;;8.00;;
1428;SDS011;708;51.442;7.016;2024-03-02T00:22:16;8.05;;;7.75;;
1428;SDS011;708;51.442;7.016;2024-03-02T00:24:50;8.05;;;7.75;;
1428;SDS011;708;51.442;7.016;2024-03-02T00:30:26;8.02;;;7.72;;
1428;SDS011;708;51.442;7.016;2024-03-02T00:33:39;7.95;;;7.65;;
1428;SDS011;708;51.442;7.016;2024-03-02T00:36:15;7.32;;;7.03;;
1428;SDS011;708;51.442;7.016;2024-03-02T00:39:25;7.43;;;7.13;;
1428;SDS011;708;51.442;7.016;2024-03-02T00:42:15;7.72;;;7.43;;
1428;SDS011;708;51.442;7.016;2024-03-02T00:44:44;7.53;;;7.22;;
1428;SDS011;708;51.442;7.016;2024-03-02T00:48:24;6.20;;;6.00;;
1428;SDS011;708;51.442;7.016;2024-03-02T00:56:32;6.93;;;6.72;;
1428;SDS011;708;51.442;7.016;2024-03-02T00:59:41;7.82;;;7.53;;
1428;SDS011;708;51.442;7.016;2024-03-02T01:02:43;7.55;;;7.25;;
1428;SDS011;708;51.442;7.016;2024-03-02T01:05:40;6.65;;;6.45;;
1428;SDS011;708;51.442;7.016;2024-03-02T01:09:07;7.75;;;7.45;;
1428;SDS011;708;51.442;7.016;2024-03-02T01:12:12;6.40;;;6.20;;
1428;SDS011;708;51.442;7.016;2024-03-02T01:14:53;7.28;;;6.97;;
1428;SDS011;708;51.442;7.016;2024-03-02T01:17:45;6.82;;;6.60;;
1428;SDS011;708;51.442;7.016;2024-03-02T01:20:19;7.30;;;7.00;;
1428;SDS011;708;51.442;7.016;2024-03-02T01:22:47;6.78;;;6.57;;
1428;SDS011;708;51.442;7.016;2024-03-02T01:25:16;7.63;;;7.32;;
1428;SDS011;708;51.442;7.016;2024-03-02T01:28:12;6.32;;;6.13;;
1428;SDS011;708;51.442;7.016;2024-03-02T01:30:47;9.45;;;8.95;;
1428;SDS011;708;51.442;7.016;2024-03-02T01:33:28;6.65;;;6.45;;
1428;SDS011;708;51.442;7.016;2024-03-02T01:36:17;7.55;;;7.25;;
1428;SDS011;708;51.442;7.016;2024-03-02T01:39:03;7.28;;;6.97;;
1428;SDS011;708;51.442;7.016;2024-03-02T01:41:39;7.05;;;6.75;;
1428;SDS011;708;51.442;7.016;2024-03-02T01:44:13;6.75;;;6.45;;
1428;SDS011;708;51.442;7.016;2024-03-02T01:47:11;6.82;;;6.57;;
1428;SDS011;708;51.442;7.016;2024-03-02T01:49:58;5.80;;;5.60;;
1428;SDS011;708;51.442;7.016;2024-03-02T01:52:40;5.22;;;5.03;;
1428;SDS011;708;51.442;7.016;2024-03-02T01:55:19;5.68;;;5.47;;
1428;SDS011;708;51.442;7.016;2024-03-02T01:57:52;6.45;;;6.13;;
1428;SDS011;708;51.442;7.016;2024-03-02T02:00:24;5.25;;;5.05;;
1428;SDS011;708;51.442;7.016;2024-03-02T02:03:02;5.43;;;5.22;;
1428;SDS011;708;51.442;7.016;2024-03-02T02:05:29;5.75;;;5.45;;
1428;SDS011;708;51.442;7.016;2024-03-02T02:07:56;5.45;;;5.18;;
1428;SDS011;708;51.442;7.016;2024-03-02T02:10:23;5.18;;;4.97;;
1428;SDS011;708;51.442;7.016;2024-03-02T02:12:51;5.00;;;4.80;;
1428;SDS011;708;51.442;7.016;2024-03-02T02:15:25;4.45;;;4.25;;
1428;SDS011;708;51.442;7.016;2024-03-02T02:17:52;4.53;;;4.32;;
1428;SDS011;708;51.442;7.016;2024-03-02T02:20:19;4.80;;;4.60;;
1428;SDS011;708;51.442;7.016;2024-03-02T02:22:59;5.50;;;5.30;;
1428;SDS011;708;51.442;7.016;2024-03-02T02:25:26;5.18;;;4.97;;
1428;SDS011;708;51.442;7.016;2024-03-02T02:27:54;4.85;;;4.65;;
1428;SDS011;708;51.442;7.016;2024-03-02T02:30:21;4.10;;;3.90;;
1428;SDS011;708;51.442;7.016;2024-03-02T02:32:49;4.85;;;4.65;;
1428;SDS011;708;51.442;7.016;2024-03-02T02:35:16;4.70;;;4.50;;
1428;SDS011;708;51.442;7.016;2024-03-02T02:37:43;5.57;;;5.38;;
1428;SDS011;708;51.442;7.016;2024-03-02T02:40:13;5.80;;;5.60;;
1428;SDS011;708;51.442;7.016;2024-03-02T02:42:40;5.05;;;4.85;;
1428;SDS011;708;51.442;7.016;2024-03-02T02:45:06;5.85;;;5.65;;
1428;SDS011;708;51.442;7.016;2024-03-02T02:47:34;5.35;;;5.15;;
1428;SDS011;708;51.442;7.016;2024-03-02T02:50:01;4.90;;;4.70;;
1428;SDS011;708;51.442;7.016;2024-03-02T02:52:31;6.25;;;6.05;;
1428;SDS011;708;51.442;7.016;2024-03-02T02:55:00;5.18;;;4.97;;
1428;SDS011;708;51.442;7.016;2024-03-02T02:57:29;4.70;;;4.50;;
1428;SDS011;708;51.442;7.016;2024-03-02T03:00:00;5.40;;;5.20;;
1428;SDS011;708;51.442;7.016;2024-03-02T03:02:29;5.32;;;5.13;;
1428;SDS011;708;51.442;7.016;2024-03-02T03:04:56;5.68;;;5.47;;
1428;SDS011;708;51.442;7.016;2024-03-02T03:07:23;6.05;;;5.85;;
1428;SDS011;708;51.442;7.016;2024-03-02T03:09:49;5.95;;;5.75;;
1428;SDS011;708;51.442;7.016;2024-03-02T03:12:16;5.90;;;5.70;;
1428;SDS011;708;51.442;7.016;2024-03-02T03:14:44;5.78;;;5.57;;
1428;SDS011;708;51.442;7.016;2024-03-02T03:17:11;5.72;;;5.53;;
1428;SDS011;708;51.442;7.016;2024-03-02T03:19:38;5.88;;;5.68;;
1428;SDS011;708;51.442;7.016;2024-03-02T03:22:04;5.65;;;5.45;;
1428;SDS011;708;51.442;7.016;2024-03-02T03:24:31;5.68;;;5.47;;
1428;SDS011;708;51.442;7.016;2024-03-02T03:26:58;5.55;;;5.35;;
1428;SDS011;708;51.442;7.016;2024-03-02T03:29:25;4.95;;;4.75;;
1428;SDS011;708;51.442;7.016;2024-03-02T03:31:53;5.05;;;4.85;;
1428;SDS011;708;51.442;7.016;2024-03-02T03:34:19;5.47;;;5.28;;
1428;SDS011;708;51.442;7.016;2024-03-02T03:36:46;4.70;;;4.50;;
1428;SDS011;708;51.442;7.016;2024-03-02T03:39:13;4.90;;;4.70;;
1428;SDS011;708;51.442;7.016;2024-03-02T03:41:40;4.40;;;4.20;;
1428;SDS011;708;51.442;7.016;2024-03-02T03:44:06;5.00;;;4.80;;
1428;SDS011;708;51.442;7.016;2024-03-02T03:46:33;6.40;;;6.20;;
1428;SDS011;708;51.442;7.016;2024-03-02T03:49:01;5.65;;;5.43;;
1428;SDS011;708;51.442;7.016;2024-03-02T03:51:28;4.35;;;4.15;;
1428;SDS011;708;51.442;7.016;2024-03-02T03:53:55;5.18;;;4.97;;
1428;SDS011;708;51.442;7.016;2024-03-02T03:56:22;6.20;;;5.95;;
1428;SDS011;708;51.442;7.016;2024-03-02T03:58:49;5.18;;;4.97;;
1428;SDS011;708;51.442;7.016;2024-03-02T04:01:16;5.45;;;5.25;;
1428;SDS011;708;51.442;7.016;2024-03-02T04:03:42;5.55;;;5.35;;
1428;SDS011;708;51.442;7.016;2024-03-02T04:06:11;5.20;;;5.00;;
1428;SDS011;708;51.442;7.016;2024-03-02T04:08:38;5.32;;;5.13;;
1428;SDS011;708;51.442;7.016;2024-03-02T04:11:05;5.32;;;5.13;;
1428;SDS011;708;51.442;7.016;2024-03-02T04:13:32;5.65;;;5.45;;
1428;SDS011;708;51.442;7.016;2024-03-02T04:15:59;5.25;;;5.05;;
1428;SDS011;708;51.442;7.016;2024-03-02T04:18:26;5.35;;;5.15;;
1428;SDS011;708;51.442;7.016;2024-03-02T04:20:53;4.70;;;4.50;;
1428;SDS011;708;51.442;7.016;2024-03-02T04:23:21;5.30;;;5.10;;
1428;SDS011;708;51.442;7.016;2024-03-02T04:25:47;5.38;;;5.18;;
1428;SDS011;708;51.442;7.016;2024-03-02T04:28:15;5.03;;;4.82;;
1428;SDS011;708;51.442;7.016;2024-03-02T04:30:40;6.17;;;5.97;;
1428;SDS011;708;51.442;7.016;2024-03-02T04:33:07;6.00;;;5.80;;
1428;SDS011;708;51.442;7.016;2024-03-02T04:35:35;5.63;;;5.43;;
1428;SDS011;708;51.442;7.016;2024-03-02T04:38:02;5.97;;;5.78;;
1428;SDS011;708;51.442;7.016;2024-03-02T04:40:30;5.72;;;5.53;;
1428;SDS011;708;51.442;7.016;2024-03-02T04:42:57;7.97;;;7.57;;
1428;SDS011;708;51.442;7.016;2024-03-02T04:45:24;10.85;;;10.00;;
1428;SDS011;708;51.442;7.016;2024-03-02T04:47:51;5.55;;;5.35;;
1428;SDS011;708;51.442;7.016;2024-03-02T04:50:17;5.15;;;4.95;;
1428;SDS011;708;51.442;7.016;2024-03-02T04:52:44;5.50;;;5.30;;
1428;SDS011;708;51.442;7.016;2024-03-02T04:55:11;5.40;;;5.20;;
1428;SDS011;708;51.442;7.016;2024-03-02T04:58:01;5.40;;;5.20;;
1428;SDS011;708;51.442;7.016;2024-03-02T05:00:28;5.20;;;5.00;;
1428;SDS011;708;51.442;7.016;2024-03-02T05:02:55;5.63;;;5.38;;
1428;SDS011;708;51.442;7.016;2024-03-02T05:05:21;7.60;;;7.30;;
1428;SDS011;708;51.442;7.016;2024-03-02T05:07:48;6.85;;;6.57;;
1428;SDS011;708;51.442;7.016;2024-03-02T05:10:15;7.90;;;7.60;;
1428;SDS011;708;51.442;7.016;2024-03-02T05:12:42;6.70;;;6.47;;
1428;SDS011;708;51.442;7.016;2024-03-02T05:15:25;6.45;;;6.25;;
1428;SDS011;708;51.442;7.016;2024-03-02T05:17:52;6.40;;;6.20;;
1428;SDS011;708;51.442;7.016;2024-03-02T05:20:20;6.65;;;6.45;;
1428;SDS011;708;51.442;7.016;2024-03-02T05:22:46;7.65;;;7.35;;
1428;SDS011;708;51.442;7.016;2024-03-02T05:25:14;7.03;;;6.72;;
1428;SDS011;708;51.442;7.016;2024-03-02T05:27:41;7.38;;;7.07;;
1428;SDS011;708;51.442;7.016;2024-03-02T05:30:08;7.60;;;7.30;;
1428;SDS011;708;51.442;7.016;2024-03-02T05:32:37;7.78;;;7.47;;
1428;SDS011;708;51.442;7.016;2024-03-02T05:35:04;8.25;;;7.85;;
1428;SDS011;708;51.442;7.016;2024-03-02T05:37:32;6.80;;;6.60;;
1428;SDS011;708;51.442;7.016;2024-03-02T05:39:59;7.85;;;7.55;;
1428;SDS011;708;51.442;7.016;2024-03-02T05:42:26;6.97;;;6.72;;
1428;SDS011;708;51.442;7.016;2024-03-02T05:44:53;6.60;;;6.40;;
1428;SDS011;708;51.442;7.016;2024-03-02T05:47:19;7.63;;;7.32;;
1428;SDS011;708;51.442;7.016;2024-03-02T05:49:47;7.22;;;6.93;;
1428;SDS011;708;51.442;7.016;2024-03-02T05:52:14;6.55;;;6.35;;
1428;SDS011;708;51.442;7.016;2024-03-02T05:54:41;7.78;;;7.47;;
1428;SDS011;708;51.442;7.016;2024-03-02T05:57:07;7.53;;;7.22;;
1428;SDS011;708;51.442;7.016;2024-03-02T05:59:51;7.40;;;7.10;;
1428;SDS011;708;51.442;7.016;2024-03-02T06:02:20;7.40;;;7.10;;
1428;SDS011;708;51.442;7.016;2024-03-02T06:04:56;8.57;;;8.27;;
1428;SDS011;708;51.442;7.016;2024-03-02T06:07:23;8.20;;;7.90;;
1428;SDS011;708;51.442;7.016;2024-03-02T06:09:49;7.00;;;6.70;;
1428;SDS011;708;51.442;7.016;2024-03-02T06:12:17;7.68;;;7.38;;
1428;SDS011;708;51.442;7.016;2024-03-02T06:14:44;7.40;;;7.10;;
1428;SDS011;708;51.442;7.016;2024-03-02T06:17:11;7.22;;;6.93;;
1428;SDS011;708;51.442;7.016;2024-03-02T06:19:38;8.00;;;7.60;;
1428;SDS011;708;51.442;7.016;2024-03-02T06:22:06;7.13;;;6.85;;
1428;SDS011;708;51.442;7.016;2024-03-02T06:24:35;6.63;;;6.43;;
1428;SDS011;708;51.442;7.016;2024-03-02T06:27:01;6.65;;;6.35;;
1428;SDS011;708;51.442;7.016;2024-03-02T06:29:28;7.85;;;7.55;;
1428;SDS011;708;51.442;7.016;2024-03-02T06:31:55;7.90;;;7.60;;
1428;SDS011;708;51.442;7.016;2024-03-02T06:34:21;6.47;;;6.28;;
1428;SDS011;708;51.442;7.016;2024-03-02T06:36:47;7.00;;;6.70;;
1428;SDS011;708;51.442;7.016;2024-03-02T06:39:15;7.70;;;7.25;;
1428;SDS011;708;51.442;7.016;2024-03-02T06:41:42;6.72;;;6.43;;
1428;SDS011;708;51.442;7.016;2024-03-02T06:44:08;7.82;;;7.53;;
1428;SDS011;708;51.442;7.016;2024-03-02T06:46:35;6.88;;;6.63;;
1428;SDS011;708;51.442;7.016;2024-03-02T06:49:02;7.30;;;7.00;;
1428;SDS011;708;51.442;7.016;2024-03-02T06:51:29;7.03;;;6.72;;
1428;SDS011;708;51.442;7.016;2024-03-02T06:53:56;6.43;;;6.22;;
1428;SDS011;708;51.442;7.016;2024-03-02T06:56:24;6.35;;;6.15;;
1428;SDS011;708;51.442;7.016;2024-03-02T06:58:51;8.50;;;8.20;;
1428;SDS011;708;51.442;7.016;2024-03-02T07:01:18;6.80;;;6.60;;
1428;SDS011;708;51.442;7.016;2024-03-02T07:03:45;6.30;;;6.10;;
1428;SDS011;708;51.442;7.016;2024-03-02T07:06:12;5.85;;;5.65;;
1428;SDS011;708;51.442;7.016;2024-03-02T07:08:38;6.97;;;6.45;;
1428;SDS011;708;51.442;7.016;2024-03-02T07:11:06;5.97;;;5.78;;
1428;SDS011;708;51.442;7.016;2024-03-02T07:13:34;6.15;;;5.95;;
1428;SDS011;708;51.442;7.016;2024-03-02T07:16:04;7.55;;;7.00;;
1428;SDS011;708;51.442;7.016;2024-03-02T07:18:55;8.00;;;7.60;;
1428;SDS011;708;51.442;7.016;2024-03-02T07:21:26;7.70;;;7.40;;
1428;SDS011;708;51.442;7.016;2024-03-02T07:23:53;7.68;;;7.38;;
1428;SDS011;708;51.442;7.016;2024-03-02T07:26:21;6.40;;;6.00;;
1428;SDS011;708;51.442;7.016;2024-03-02T07:28:49;5.90;;;5.60;;
1428;SDS011;708;51.442;7.016;2024-03-02T07:31:16;5.50;;;5.30;;
1428;SDS011;708;51.442;7.016;2024-03-02T07:33:43;6.55;;;6.20;;
1428;SDS011;708;51.442;7.016;2024-03-02T07:36:11;7.22;;;6.30;;
1428;SDS011;708;51.442;7.016;2024-03-02T07:38:38;7.22;;;6.93;;
1428;SDS011;708;51.442;7.016;2024-03-02T07:41:05;6.97;;;6.68;;
1428;SDS011;708;51.442;7.016;2024-03-02T07:43:32;5.90;;;5.70;;
1428;SDS011;708;51.442;7.016;2024-03-02T07:46:00;6.47;;;6.20;;
1428;SDS011;708;51.442;7.016;2024-03-02T07:48:28;6.40;;;6.10;;
1428;SDS011;708;51.442;7.016;2024-03-02T07:50:55;7.10;;;6.80;;
1428;SDS011;708;51.442;7.016;2024-03-02T07:53:22;5.55;;;5.35;;
1428;SDS011;708;51.442;7.016;2024-03-02T07:55:49;5.85;;;5.60;;
1428;SDS011;708;51.442;7.016;2024-03-02T07:58:16;6.00;;;5.70;;
1428;SDS011;708;51.442;7.016;2024-03-02T08:00:44;7.35;;;7.05;;
1428;SDS011;708;51.442;7.016;2024-03-02T08:03:12;7.25;;;6.95;;
1428;SDS011;708;51.442;7.016;2024-03-02T08:05:39;6.65;;;6.35;;
1428;SDS011;708;51.442;7.016;2024-03-02T08:08:06;6.63;;;6.32;;
1428;SDS011;708;51.442;7.016;2024-03-02T08:10:33;6.75;;;6.45;;
1428;SDS011;708;51.442;7.016;2024-03-02T08:13:00;8.00;;;7.70;;
1428;SDS011;708;51.442;7.016;2024-03-02T08:15:27;7.20;;;6.90;;
1428;SDS011;708;51.442;7.016;2024-03-02T08:17:54;7.40;;;7.10;;
1428;SDS011;708;51.442;7.016;2024-03-02T08:20:22;5.30;;;5.10;;
1428;SDS011;708;51.442;7.016;2024-03-02T08:22:49;7.85;;;7.45;;
1428;SDS011;708;51.442;7.016;2024-03-02T08:25:16;5.38;;;5.18;;
1428;SDS011;708;51.442;7.016;2024-03-02T08:27:43;5.82;;;5.63;;
1428;SDS011;708;51.442;7.016;2024-03-02T08:30:11;6.05;;;5.85;;
1428;SDS011;708;51.442;7.016;2024-03-02T08:32:43;6.90;;;6.60;;
1428;SDS011;708;51.442;7.016;2024-03-02T08:35:11;5.93;;;5.70;;
1428;SDS011;708;51.442;7.016;2024-03-02T08:37:40;6.00;;;5.80;;
1428;SDS011;708;51.442;7.016;2024-03-02T08:40:08;6.07;;;5.87;;
1428;SDS011;708;51.442;7.016;2024-03-02T08:42:35;6.27;;;6.07;;
1428;SDS011;708;51.442;7.016;2024-03-02T08:45:02;5.90;;;5.70;;
1428;SDS011;708;51.442;7.016;2024-03-02T08:47:29;6.17;;;5.97;;
1428;SDS011;708;51.442;7.016;2024-03-02T08:49:56;5.80;;;5.60;;
1428;SDS011;708;51.442;7.016;2024-03-02T08:52:23;7.13;;;6.83;;
1428;SDS011;708;51.442;7.016;2024-03-02T08:54:50;5.00;;;4.80;;
1428;SDS011;708;51.442;7.016;2024-03-02T08:57:17;6.93;;;6.63;;
1428;SDS011;708;51.442;7.016;2024-03-02T08:59:44;6.20;;;5.90;;
1428;SDS011;708;51.442;7.016;2024-03-02T09:02:11;5.50;;;5.20;;
1428;SDS011;708;51.442;7.016;2024-03-02T09:04:38;5.73;;;5.53;;
1428;SDS011;708;51.442;7.016;2024-03-02T09:07:05;5.43;;;5.23;;
1428;SDS011;708;51.442;7.016;2024-03-02T09:09:32;5.47;;;5.27;;
1428;SDS011;708;51.442;7.016;2024-03-02T09:12:01;5.17;;;4.97;;
1428;SDS011;708;51.442;7.016;2024-03-02T09:14:28;6.93;;;6.63;;
1428;SDS011;708;51.442;7.016;2024-03-02T09:16:54;5.80;;;5.50;;
1428;SDS011;708;51.442;7.016;2024-03-02T09:19:21;5.60;;;5.40;;
1428;SDS011;708;51.442;7.016;2024-03-02T09:21:48;6.87;;;6.57;;
1428;SDS011;708;51.442;7.016;2024-03-02T09:24:15;6.50;;;6.20;;
1428;SDS011;708;51.442;7.016;2024-03-02T09:26:42;7.13;;;6.83;;
1428;SDS011;708;51.442;7.016;2024-03-02T09:29:10;7.10;;;6.80;;
1428;SDS011;708;51.442;7.016;2024-03-02T09:31:39;7.10;;;6.80;;
1428;SDS011;708;51.442;7.016;2024-03-02T09:34:06;6.87;;;6.57;;
1428;SDS011;708;51.442;7.016;2024-03-02T09:36:33;7.20;;;6.90;;
1428;SDS011;708;51.442;7.016;2024-03-02T09:38:59;6.93;;;6.63;;
1428;SDS011;708;51.442;7.016;2024-03-02T09:41:28;8.00;;;7.70;;
1428;SDS011;708;51.442;7.016;2024-03-02T09:43:55;7.43;;;7.13;;
1428;SDS011;708;51.442;7.016;2024-03-02T09:46:24;7.27;;;6.97;;
1428;SDS011;708;51.442;7.016;2024-03-02T09:48:51;5.60;;;5.40;;
1428;SDS011;708;51.442;7.016;2024-03-02T09:51:18;5.70;;;5.50;;
1428;SDS011;708;51.442;7.016;2024-03-02T09:53:46;6.53;;;6.13;;
1428;SDS011;708;51.442;7.016;2024-03-02T09:56:13;6.97;;;6.67;;
1428;SDS011;708;51.442;7.016;2024-03-02T09:58:47;7.23;;;6.93;;
1428;SDS011;708;51.442;7.016;2024-03-02T10:01:13;7.13;;;6.83;;
1428;SDS011;708;51.442;7.016;2024-03-02T10:03:42;7.70;;;7.40;;
1428;SDS011;708;51.442;7.016;2024-03-02T10:06:18;6.87;;;6.57;;
1428;SDS011;708;51.442;7.016;2024-03-02T10:08:45;7.53;;;7.23;;
1428;SDS011;708;51.442;7.016;2024-03-02T10:11:19;8.03;;;7.73;;
1428;SDS011;708;51.442;7.016;2024-03-02T10:14:03;8.10;;;7.80;;
1428;SDS011;708;51.442;7.016;2024-03-02T10:16:33;7.72;;;7.43;;
1428;SDS011;708;51.442;7.016;2024-03-02T10:19:14;5.20;;;5.00;;
1428;SDS011;708;51.442;7.016;2024-03-02T10:21:42;26.88;;;7.38;;
1428;SDS011;708;51.442;7.016;2024-03-02T10:24:09;6.97;;;6.68;;
1428;SDS011;708;51.442;7.016;2024-03-02T10:26:37;6.10;;;5.90;;
1428;SDS011;708;51.442;7.016;2024-03-02T10:29:04;8.50;;;8.20;;
1428;SDS011;708;51.442;7.016;2024-03-02T10:31:31;8.55;;;8.25;;
1428;SDS011;708;51.442;7.016;2024-03-02T10:33:58;8.80;;;8.40;;
1428;SDS011;708;51.442;7.016;2024-03-02T10:36:28;8.85;;;8.55;;
1428;SDS011;708;51.442;7.016;2024-03-02T10:38:56;9.43;;;9.13;;
1428;SDS011;708;51.442;7.016;2024-03-02T10:41:24;9.00;;;8.70;;
1428;SDS011;708;51.442;7.016;2024-03-02T10:43:53;7.85;;;7.55;;
1428;SDS011;708;51.442;7.016;2024-03-02T10:46:24;8.23;;;7.93;;
1428;SDS011;708;51.442;7.016;2024-03-02T10:48:54;7.82;;;7.40;;
1428;SDS011;708;51.442;7.016;2024-03-02T10:51:21;9.30;;;8.90;;
1428;SDS011;708;51.442;7.016;2024-03-02T10:53:49;6.45;;;6.15;;
1428;SDS011;708;51.442;7.016;2024-03-02T10:56:16;8.15;;;7.80;;
1428;SDS011;708;51.442;7.016;2024-03-02T10:58:51;8.32;;;7.93;;
1428;SDS011;708;51.442;7.016;2024-03-02T11:01:27;8.27;;;7.88;;
1428;SDS011;708;51.442;7.016;2024-03-02T11:03:57;8.75;;;8.45;;
1428;SDS011;708;51.442;7.016;2024-03-02T11:06:26;8.23;;;7.93;;
1428;SDS011;708;51.442;7.016;2024-03-02T11:08:58;8.07;;;7.78;;
1428;SDS011;708;51.442;7.016;2024-03-02T11:11:32;7.90;;;7.60;;
1428;SDS011;708;51.442;7.016;2024-03-02T11:14:01;10.18;;;9.50;;
1428;SDS011;708;51.442;7.016;2024-03-02T11:16:33;8.40;;;8.10;;
1428;SDS011;708;51.442;7.016;2024-03-02T11:19:00;7.25;;;6.95;;
1428;SDS011;708;51.442;7.016;2024-03-02T11:21:29;8.73;;;8.43;;
1428;SDS011;708;51.442;7.016;2024-03-02T11:23:59;8.10;;;7.80;;
1428;SDS011;708;51.442;7.016;2024-03-02T11:26:27;8.15;;;7.85;;
1428;SDS011;708;51.442;7.016;2024-03-02T11:28:54;7.90;;;7.50;;
1428;SDS011;708;51.442;7.016;2024-03-02T11:31:22;6.80;;;6.53;;
1428;SDS011;708;51.442;7.016;2024-03-02T11:33:48;8.00;;;7.70;;
1428;SDS011;708;51.442;7.016;2024-03-02T11:36:15;7.97;;;7.65;;
1428;SDS011;708;51.442;7.016;2024-03-02T11:38:43;6.97;;;6.68;;
1428;SDS011;708;51.442;7.016;2024-03-02T11:41:12;7.78;;;7.47;;
1428;SDS011;708;51.442;7.016;2024-03-02T11:43:40;6.18;;;5.97;;
1428;SDS011;708;51.442;7.016;2024-03-02T11:46:09;7.30;;;7.00;;
1428;SDS011;708;51.442;7.016;2024-03-02T11:48:38;9.18;;;8.57;;
1428;SDS011;708;51.442;7.016;2024-03-02T11:51:05;7.95;;;7.65;;
1428;SDS011;708;51.442;7.016;2024-03-02T11:53:32;5.07;;;4.88;;
1428;SDS011;708;51.442;7.016;2024-03-02T11:56:01;7.10;;;6.80;;
1428;SDS011;708;51.442;7.016;2024-03-02T11:58:29;6.97;;;6.68;;
1428;SDS011;708;51.442;7.016;2024-03-02T12:00:56;6.07;;;5.88;;
1428;SDS011;708;51.442;7.016;2024-03-02T12:03:23;7.75;;;7.38;;
1428;SDS011;708;51.442;7.016;2024-03-02T12:05:52;7.40;;;7.10;;
1428;SDS011;708;51.442;7.016;2024-03-02T12:08:19;8.02;;;7.72;;
1428;SDS011;708;51.442;7.016;2024-03-02T12:10:55;7.80;;;7.50;;
1428;SDS011;708;51.442;7.016;2024-03-02T12:13:23;6.43;;;6.22;;
1428;SDS011;708;51.442;7.016;2024-03-02T12:15:54;6.55;;;6.15;;
1428;SDS011;708;51.442;7.016;2024-03-02T12:18:22;5.57;;;5.38;;
1428;SDS011;708;51.442;7.016;2024-03-02T12:20:48;6.88;;;6.40;;
1428;SDS011;708;51.442;7.016;2024-03-02T12:23:18;6.55;;;6.30;;
1428;SDS011;708;51.442;7.016;2024-03-02T12:25:45;6.10;;;5.90;;
1428;SDS011;708;51.442;7.016;2024-03-02T12:28:12;7.15;;;6.85;;
1428;SDS011;708;51.442;7.016;2024-03-02T12:30:39;7.78;;;7.18;;
1428;SDS011;708;51.442;7.016;2024-03-02T12:33:07;6.85;;;6.55;;
1428;SDS011;708;51.442;7.016;2024-03-02T12:35:34;6.75;;;6.45;;
1428;SDS011;708;51.442;7.016;2024-03-02T12:38:02;6.55;;;6.25;;
1428;SDS011;708;51.442;7.016;2024-03-02T12:40:30;4.80;;;4.60;;
1428;SDS011;708;51.442;7.016;2024-03-02T12:42:57;4.72;;;4.53;;
1428;SDS011;708;51.442;7.016;2024-03-02T12:45:24;5.00;;;4.80;;
1428;SDS011;708;51.442;7.016;2024-03-02T12:47:50;5.18;;;4.97;;
1428;SDS011;708;51.442;7.016;2024-03-02T12:50:19;6.47;;;6.07;;
1428;SDS011;708;51.442;7.016;2024-03-02T12:52:50;5.55;;;5.35;;
1428;SDS011;708;51.442;7.016;2024-03-02T12:55:19;5.63;;;5.43;;
1428;SDS011;708;51.442;7.016;2024-03-02T12:57:49;7.25;;;6.85;;
1428;SDS011;708;51.442;7.016;2024-03-02T13:00:17;5.07;;;4.88;;
1428;SDS011;708;51.442;7.016;2024-03-02T13:02:45;6.00;;;5.80;;
1428;SDS011;708;51.442;7.016;2024-03-02T13:05:13;5.75;;;5.55;;
1428;SDS011;708;51.442;7.016;2024-03-02T13:07:41;5.43;;;5.22;;
1428;SDS011;708;51.442;7.016;2024-03-02T13:10:11;6.32;;;6.13;;
1428;SDS011;708;51.442;7.016;2024-03-02T13:12:39;5.97;;;5.78;;
1428;SDS011;708;51.442;7.016;2024-03-02T13:15:05;6.22;;;5.93;;
1428;SDS011;708;51.442;7.016;2024-03-02T13:17:34;6.72;;;6.43;;
1428;SDS011;708;51.442;7.016;2024-03-02T13:20:01;6.43;;;6.22;;
1428;SDS011;708;51.442;7.016;2024-03-02T13:22:29;5.65;;;5.45;;
1428;SDS011;708;51.442;7.016;2024-03-02T13:24:57;6.30;;;6.10;;
1428;SDS011;708;51.442;7.016;2024-03-02T13:27:25;6.05;;;5.85;;
1428;SDS011;708;51.442;7.016;2024-03-02T13:29:51;7.53;;;7.22;;
1428;SDS011;708;51.442;7.016;2024-03-02T13:32:18;7.70;;;7.40;;
1428;SDS011;708;51.442;7.016;2024-03-02T13:34:48;8.20;;;7.90;;
1428;SDS011;708;51.442;7.016;2024-03-02T13:37:15;9.18;;;8.88;;
1428;SDS011;708;51.442;7.016;2024-03-02T13:39:42;6.53;;;6.28;;
1428;SDS011;708;51.442;7.016;2024-03-02T13:42:10;7.32;;;7.00;;
1428;SDS011;708;51.442;7.016;2024-03-02T13:44:39;6.50;;;6.30;;
1428;SDS011;708;51.442;7.016;2024-03-02T13:47:06;6.85;;;6.55;;
1428;SDS011;708;51.442;7.016;2024-03-02T13:49:33;6.90;;;6.60;;
1428;SDS011;708;51.442;7.016;2024-03-02T13:52:01;6.88;;;6.57;;
1428;SDS011;708;51.442;7.016;2024-03-02T13:54:36;6.28;;;6.07;;
1428;SDS011;708;51.442;7.016;2024-03-02T13:57:04;6.57;;;6.38;;
1428;SDS011;708;51.442;7.016;2024-03-02T13:59:31;7.00;;;6.38;;
1428;SDS011;708;51.442;7.016;2024-03-02T14:01:58;6.45;;;6.15;;
1428;SDS011;708;51.442;7.016;2024-03-02T14:04:25;5.15;;;4.95;;
1428;SDS011;708;51.442;7.016;2024-03-02T14:06:52;5.70;;;5.50;;
1428;SDS011;708;51.442;7.016;2024-03-02T14:09:19;5.70;;;5.50;;
1428;SDS011;708;51.442;7.016;2024-03-02T14:11:46;5.22;;;5.03;;
1428;SDS011;708;51.442;7.016;2024-03-02T14:14:14;5.75;;;5.55;;
1428;SDS011;708;51.442;7.016;2024-03-02T14:16:42;5.22;;;5.03;;
1428;SDS011;708;51.442;7.016;2024-03-02T14:19:09;5.40;;;5.20;;
1428;SDS011;708;51.442;7.016;2024-03-02T14:21:36;5.38;;;5.18;;
1428;SDS011;708;51.442;7.016;2024-03-02T14:24:04;5.38;;;5.18;;
1428;SDS011;708;51.442;7.016;2024-03-02T14:26:32;5.03;;;4.82;;
1428;SDS011;708;51.442;7.016;2024-03-02T14:28:58;4.90;;;4.70;;
1428;SDS011;708;51.442;7.016;2024-03-02T14:31:26;5.93;;;5.65;;
1428;SDS011;708;51.442;7.016;2024-03-02T14:33:55;4.35;;;4.15;;
1428;SDS011;708;51.442;7.016;2024-03-02T14:36:22;4.90;;;4.70;;
1428;SDS011;708;51.442;7.016;2024-03-02T14:38:49;5.10;;;4.90;;
1428;SDS011;708;51.442;7.016;2024-03-02T14:41:16;5.28;;;5.07;;
1428;SDS011;708;51.442;7.016;2024-03-02T14:43:42;4.90;;;4.70;;
1428;SDS011;708;51.442;7.016;2024-03-02T14:46:09;4.90;;;4.70;;
1428;SDS011;708;51.442;7.016;2024-03-02T14:48:37;5.15;;;4.95;;
1428;SDS011;708;51.442;7.016;2024-03-02T14:51:05;5.50;;;5.30;;
1428;SDS011;708;51.442;7.016;2024-03-02T14:53:35;5.15;;;4.95;;
1428;SDS011;708;51.442;7.016;2024-03-02T14:56:18;4.90;;;4.70;;
1428;SDS011;708;51.442;7.016;2024-03-02T14:59:05;5.32;;;5.13;;
1428;SDS011;708;51.442;7.016;2024-03-02T15:01:43;4.93;;;4.72;;
1428;SDS011;708;51.442;7.016;2024-03-02T15:04:11;4.88;;;4.68;;
1428;SDS011;708;51.442;7.016;2024-03-02T15:06:40;3.60;;;3.40;;
1428;SDS011;708;51.442;7.016;2024-03-02T15:09:07;3.70;;;3.50;;
1428;SDS011;708;51.442;7.016;2024-03-02T15:11:34;4.25;;;4.05;;
1428;SDS011;708;51.442;7.016;2024-03-02T15:14:01;4.40;;;4.20;;
1428;SDS011;708;51.442;7.016;2024-03-02T15:16:27;4.80;;;4.60;;
1428;SDS011;708;51.442;7.016;2024-03-02T15:18:54;4.63;;;4.40;;
1428;SDS011;708;51.442;7.016;2024-03-02T15:21:21;4.95;;;4.72;;
1428;SDS011;708;51.442;7.016;2024-03-02T15:23:49;5.30;;;5.10;;
1428;SDS011;708;51.442;7.016;2024-03-02T15:26:16;5.20;;;4.95;;
1428;SDS011;708;51.442;7.016;2024-03-02T15:28:43;6.32;;;6.13;;
1428;SDS011;708;51.442;7.016;2024-03-02T15:31:10;5.53;;;5.32;;
1428;SDS011;708;51.442;7.016;2024-03-02T15:33:36;6.72;;;6.43;;
1428;SDS011;708;51.442;7.016;2024-03-02T15:36:04;5.65;;;5.45;;
1428;SDS011;708;51.442;7.016;2024-03-02T15:38:31;5.90;;;5.70;;
1428;SDS011;708;51.442;7.016;2024-03-02T15:41:02;5.65;;;5.35;;
1428;SDS011;708;51.442;7.016;2024-03-02T15:43:29;5.72;;;5.53;;
1428;SDS011;708;51.442;7.016;2024-03-02T15:45:57;6.13;;;5.93;;
1428;SDS011;708;51.442;7.016;2024-03-02T15:48:24;5.25;;;5.05;;
1428;SDS011;708;51.442;7.016;2024-03-02T15:50:51;5.95;;;5.55;;
1428;SDS011;708;51.442;7.016;2024-03-02T15:53:18;5.55;;;5.35;;
1428;SDS011;708;51.442;7.016;2024-03-02T15:55:45;5.90;;;5.70;;
1428;SDS011;708;51.442;7.016;2024-03-02T15:58:13;5.18;;;4.97;;
1428;SDS011;708;51.442;7.016;2024-03-02T16:00:40;7.05;;;6.75;;